createdAt,value
2023-05-09T00:02:53.543Z,0.36
2023-05-09T00:05:55.227Z,0.36
2023-05-09T00:08:57.460Z,0.35
2023-05-09T00:11:58.973Z,0.33
2023-05-09T00:15:04.254Z,0.32
2023-05-09T00:18:06.273Z,0.32
2023-05-09T00:21:08.871Z,0.32
2023-05-09T00:24:10.620Z,0.30
2023-05-09T00:27:12.415Z,0.25
2023-05-09T00:30:14.012Z,0.11
2023-05-09T00:33:15.655Z,-0.02
2023-05-09T00:36:17.217Z,-0.10
2023-05-09T00:39:18.887Z,-0.11
2023-05-09T00:42:20.555Z,-0.14
2023-05-09T00:45:22.576Z,-0.16
2023-05-09T00:48:24.180Z,-0.19
2023-05-09T00:51:25.942Z,-0.24
2023-05-09T00:54:27.480Z,-0.28
2023-05-09T00:57:29.232Z,-0.32
2023-05-09T01:00:30.724Z,-0.37
2023-05-09T01:03:32.603Z,-0.45
2023-05-09T01:06:45.551Z,-0.50
2023-05-09T01:09:56.894Z,-0.52
2023-05-09T01:13:10.397Z,-0.52
2023-05-09T01:16:50.772Z,-0.53
2023-05-09T01:19:58.877Z,-0.52
2023-05-09T01:23:04.962Z,-0.50
2023-05-09T01:26:27.259Z,-0.52
2023-05-09T01:29:48.436Z,-0.53
2023-05-09T01:32:51.713Z,-0.56
2023-05-09T01:36:00.159Z,-0.59
2023-05-09T01:39:02.644Z,-0.62
2023-05-09T01:42:04.790Z,-0.65
2023-05-09T01:45:07.546Z,-0.65
2023-05-09T01:48:09.700Z,-0.65
2023-05-09T01:51:13.821Z,-0.67
2023-05-09T01:54:16.754Z,-0.67
2023-05-09T01:57:19.075Z,-0.72
2023-05-09T02:00:21.394Z,-0.76
2023-05-09T02:03:23.665Z,-0.77
2023-05-09T02:06:25.462Z,-0.76
2023-05-09T02:09:27.310Z,-0.77
2023-05-09T02:12:28.991Z,-0.81
2023-05-09T02:15:30.988Z,-0.89
2023-05-09T02:18:32.758Z,-0.86
2023-05-09T02:21:34.298Z,-0.74
2023-05-09T02:24:35.981Z,-0.78
2023-05-09T02:27:38.765Z,-0.96
2023-05-09T02:30:42.913Z,-1.09
2023-05-09T02:33:44.965Z,-1.07
2023-05-09T02:36:46.771Z,-0.96
2023-05-09T02:39:48.628Z,-0.90
2023-05-09T02:42:50.337Z,-0.88
2023-05-09T02:45:51.953Z,-0.81
2023-05-09T02:48:53.603Z,-0.77
2023-05-09T02:51:55.292Z,-0.76
2023-05-09T02:54:57.056Z,-0.72
2023-05-09T02:58:12.117Z,-0.59
2023-05-09T03:01:15.630Z,-0.55
2023-05-09T03:04:17.302Z,-0.53
2023-05-09T03:07:18.924Z,-0.54
2023-05-09T03:10:20.581Z,-0.56
2023-05-09T03:13:24.008Z,-0.58
2023-05-09T03:16:25.797Z,-0.62
2023-05-09T03:19:27.588Z,-0.64
2023-05-09T03:22:29.148Z,-0.66
2023-05-09T03:25:30.819Z,-0.68
2023-05-09T03:28:33.688Z,-0.70
2023-05-09T03:31:35.297Z,-0.72
2023-05-09T03:34:37.198Z,-0.72
2023-05-09T03:37:38.912Z,-0.68
2023-05-09T03:40:41.257Z,-0.59
2023-05-09T03:43:43.078Z,-0.47
2023-05-09T03:46:45.278Z,-0.45
2023-05-09T03:49:46.834Z,-0.40
2023-05-09T03:52:48.928Z,-0.32
2023-05-09T03:55:50.563Z,-0.20
2023-05-09T03:58:52.330Z,-0.06
2023-05-09T04:01:54.431Z,0.03
2023-05-09T04:04:56.375Z,0.13
2023-05-09T04:07:58.173Z,0.19
2023-05-09T04:11:00.215Z,0.20
2023-05-09T04:14:02.161Z,0.25
2023-05-09T04:17:03.876Z,0.50
2023-05-09T04:20:06.164Z,0.78
2023-05-09T04:23:07.876Z,1.06
2023-05-09T04:26:09.770Z,1.35
2023-05-09T04:29:11.608Z,1.66
2023-05-09T04:32:13.306Z,1.96
2023-05-09T04:35:16.583Z,2.25
2023-05-09T04:38:19.893Z,2.51
2023-05-09T04:41:21.452Z,2.80
2023-05-09T04:44:23.256Z,3.07
2023-05-09T04:47:24.947Z,3.37
2023-05-09T04:50:26.643Z,3.66
2023-05-09T04:53:28.298Z,4.05
2023-05-09T04:56:30.203Z,4.56
2023-05-09T04:59:31.838Z,5.05
2023-05-09T05:02:33.597Z,5.50
2023-05-09T05:05:37.197Z,5.88
2023-05-09T05:08:39.475Z,6.06
2023-05-09T05:11:50.124Z,6.20
2023-05-09T05:14:59.222Z,6.46
2023-05-09T05:18:00.876Z,6.79
2023-05-09T05:21:02.567Z,7.02
2023-05-09T05:24:04.479Z,7.19
2023-05-09T05:27:06.096Z,7.46
2023-05-09T05:30:08.440Z,7.45
2023-05-09T05:33:10.458Z,7.48
2023-05-09T05:36:12.139Z,7.64
2023-05-09T05:39:14.650Z,7.90
2023-05-09T05:42:16.293Z,8.23
2023-05-09T05:45:18.392Z,8.61
2023-05-09T05:48:20.430Z,8.79
2023-05-09T05:51:22.235Z,8.79
2023-05-09T05:54:23.849Z,8.83
2023-05-09T05:57:25.551Z,8.76
2023-05-09T06:00:27.201Z,8.66
2023-05-09T06:03:29.095Z,8.55
2023-05-09T06:06:31.098Z,8.57
2023-05-09T06:09:32.887Z,8.62
2023-05-09T06:12:34.525Z,9.04
2023-05-09T06:15:36.249Z,9.63
2023-05-09T06:18:38.407Z,9.71
2023-05-09T06:21:40.217Z,9.42
2023-05-09T06:24:41.889Z,9.61
2023-05-09T06:27:43.482Z,9.97
2023-05-09T06:30:45.144Z,10.24
2023-05-09T06:33:46.796Z,10.49
2023-05-09T06:36:48.373Z,10.31
2023-05-09T06:39:50.343Z,10.51
2023-05-09T06:42:52.184Z,10.33
2023-05-09T06:45:53.793Z,10.49
2023-05-09T06:48:55.495Z,10.53
2023-05-09T06:51:57.083Z,10.62
2023-05-09T06:54:58.695Z,10.89
2023-05-09T06:58:00.587Z,11.20
2023-05-09T07:01:02.324Z,11.28
2023-05-09T07:04:04.256Z,11.58
2023-05-09T07:07:05.987Z,11.93
2023-05-09T07:10:11.748Z,12.26
2023-05-09T07:13:14.279Z,12.47
2023-05-09T07:16:16.140Z,12.39
2023-05-09T07:19:17.936Z,12.56
2023-05-09T07:22:19.573Z,12.59
2023-05-09T07:25:21.730Z,12.35
2023-05-09T07:28:23.718Z,12.21
2023-05-09T07:31:25.623Z,12.19
2023-05-09T07:34:27.511Z,12.30
2023-05-09T07:37:29.333Z,12.58
2023-05-09T07:40:37.155Z,13.07
2023-05-09T07:43:38.865Z,13.35
2023-05-09T07:46:40.598Z,13.45
2023-05-09T07:49:42.259Z,13.55
2023-05-09T07:52:43.929Z,13.50
2023-05-09T07:55:45.763Z,13.52
2023-05-09T07:58:47.424Z,13.68
2023-05-09T08:01:49.022Z,13.62
2023-05-09T08:04:50.625Z,14.17
2023-05-09T08:07:52.287Z,14.66
2023-05-09T08:10:53.913Z,14.23
2023-05-09T08:13:55.556Z,14.22
2023-05-09T08:16:57.351Z,14.20
2023-05-09T08:19:59.039Z,14.48
2023-05-09T08:23:00.683Z,14.51
2023-05-09T08:26:02.741Z,14.43
2023-05-09T08:29:04.407Z,14.53
2023-05-09T08:32:06.108Z,14.72
2023-05-09T08:35:08.208Z,15.14
2023-05-09T08:38:09.984Z,15.32
2023-05-09T08:41:12.034Z,15.30
2023-05-09T08:44:13.672Z,15.48
2023-05-09T08:47:15.822Z,15.81
2023-05-09T08:50:17.916Z,15.95
2023-05-09T08:53:20.380Z,16.36
2023-05-09T08:56:22.037Z,16.07
2023-05-09T08:59:24.463Z,16.01
2023-05-09T09:02:26.196Z,16.22
2023-05-09T09:08:36.508Z,17.00
2023-05-09T09:11:38.144Z,17.03
2023-05-09T09:14:43.238Z,17.56
2023-05-09T09:17:46.969Z,17.33
2023-05-09T09:20:53.637Z,16.84
2023-05-09T09:23:55.720Z,16.62
2023-05-09T09:26:57.406Z,16.93
2023-05-09T09:30:09.268Z,16.46
2023-05-09T09:33:19.254Z,15.86
2023-05-09T09:36:31.727Z,16.20
2023-05-09T09:39:33.377Z,16.67
2023-05-09T09:42:42.142Z,16.52
2023-05-09T09:45:44.074Z,16.44
2023-05-09T09:48:46.499Z,16.58
2023-05-09T09:51:55.982Z,16.68
2023-05-09T09:54:57.627Z,16.67
2023-05-09T09:57:59.588Z,17.20
2023-05-09T10:01:08.670Z,17.86
2023-05-09T10:04:15.803Z,17.24
2023-05-09T10:07:19.557Z,17.01
2023-05-09T10:10:21.715Z,17.28
2023-05-09T10:13:25.848Z,17.72
2023-05-09T10:16:42.728Z,17.71
2023-05-09T10:19:46.452Z,17.55
2023-05-09T10:22:49.422Z,17.46
2023-05-09T10:26:11.687Z,17.31
2023-05-09T10:29:16.156Z,17.47
2023-05-09T10:32:25.362Z,17.60
2023-05-09T10:35:31.354Z,16.84
2023-05-09T10:38:33.236Z,16.08
2023-05-09T10:41:36.036Z,15.58
2023-05-09T10:44:40.729Z,16.63
2023-05-09T10:47:43.836Z,16.89
2023-05-09T10:50:45.847Z,17.75
2023-05-09T10:53:49.779Z,18.19
2023-05-09T10:56:51.462Z,18.18
2023-05-09T10:59:53.276Z,18.26
2023-05-09T11:03:07.766Z,17.91
2023-05-09T11:06:09.513Z,18.16
2023-05-09T11:09:30.845Z,18.41
2023-05-09T11:12:32.390Z,17.73
2023-05-09T11:15:34.188Z,17.78
2023-05-09T11:18:49.983Z,17.48
2023-05-09T11:22:20.745Z,17.11
2023-05-09T11:25:25.748Z,17.85
2023-05-09T11:28:29.449Z,17.46
2023-05-09T11:31:31.068Z,17.67
2023-05-09T11:34:33.916Z,17.18
2023-05-09T11:37:50.415Z,16.59
2023-05-09T11:40:51.983Z,17.45
2023-05-09T11:43:55.096Z,17.95
2023-05-09T11:46:58.433Z,18.28
2023-05-09T11:50:00.168Z,18.67
2023-05-09T11:53:01.792Z,19.41
2023-05-09T11:56:04.339Z,19.47
2023-05-09T11:59:07.214Z,20.23
2023-05-09T12:02:08.826Z,20.39
2023-05-09T12:05:12.416Z,19.69
2023-05-09T12:08:14.182Z,19.48
2023-05-09T12:11:15.963Z,19.15
2023-05-09T12:14:28.134Z,18.11
2023-05-09T12:17:29.846Z,17.31
2023-05-09T12:20:50.258Z,17.31
2023-05-09T12:23:56.050Z,18.25
2023-05-09T12:26:59.338Z,18.91
2023-05-09T12:30:01.123Z,19.66
2023-05-09T12:33:02.858Z,19.57
2023-05-09T12:36:13.787Z,18.93
2023-05-09T12:39:15.405Z,18.80
2023-05-09T12:42:17.000Z,18.00
2023-05-09T12:45:19.922Z,17.71
2023-05-09T12:48:22.790Z,17.63
2023-05-09T12:51:24.412Z,17.84
2023-05-09T12:54:28.037Z,17.18
2023-05-09T12:57:31.570Z,16.92
2023-05-09T13:00:46.126Z,17.87
2023-05-09T13:04:01.828Z,19.01
2023-05-09T13:07:09.097Z,19.04
2023-05-09T13:10:15.022Z,17.98
2023-05-09T13:13:16.962Z,17.09
2023-05-09T13:16:18.782Z,16.80
2023-05-09T13:19:20.488Z,17.00
2023-05-09T13:22:22.024Z,17.47
2023-05-09T13:25:23.608Z,17.54
2023-05-09T13:28:25.637Z,18.72
2023-05-09T13:31:27.210Z,18.84
2023-05-09T13:34:28.796Z,17.79
2023-05-09T13:37:30.440Z,17.13
2023-05-09T13:40:32.005Z,16.74
2023-05-09T13:43:34.221Z,17.45
2023-05-09T13:46:35.853Z,17.70
2023-05-09T13:49:37.811Z,18.02
2023-05-09T13:52:39.338Z,18.57
2023-05-09T13:55:41.058Z,17.75
2023-05-09T13:58:42.748Z,16.91
2023-05-09T14:01:44.686Z,16.76
2023-05-09T14:04:46.625Z,17.03
2023-05-09T14:07:48.299Z,18.83
2023-05-09T14:10:49.878Z,18.34
2023-05-09T14:13:54.316Z,18.40
2023-05-09T14:16:55.885Z,17.72
2023-05-09T14:19:57.551Z,16.86
2023-05-09T14:22:59.101Z,16.32
2023-05-09T14:26:00.758Z,15.81
2023-05-09T14:29:05.913Z,15.47
2023-05-09T14:32:07.483Z,15.96
2023-05-09T14:35:09.520Z,17.58
2023-05-09T14:38:11.136Z,19.22
2023-05-09T14:41:15.596Z,20.29
2023-05-09T14:44:17.165Z,21.06
2023-05-09T14:47:19.086Z,21.98
2023-05-09T14:50:21.239Z,21.96
2023-05-09T14:53:23.812Z,20.09
2023-05-09T14:56:25.355Z,18.10
2023-05-09T14:59:27.150Z,17.11
2023-05-09T15:02:28.842Z,16.33
2023-05-09T15:05:30.467Z,16.23
2023-05-09T15:08:31.982Z,16.47
2023-05-09T15:11:43.741Z,17.07
2023-05-09T15:14:49.015Z,17.80
2023-05-09T15:17:51.594Z,18.22
2023-05-09T15:20:53.206Z,18.09
2023-05-09T15:23:54.892Z,17.72
2023-05-09T15:26:56.396Z,17.33
2023-05-09T15:29:58.020Z,17.49
2023-05-09T15:32:59.608Z,17.48
2023-05-09T15:36:01.557Z,17.03
2023-05-09T15:39:03.625Z,16.38
2023-05-09T15:42:05.197Z,16.44
2023-05-09T15:45:08.476Z,16.10
2023-05-09T15:48:10.145Z,15.96
2023-05-09T15:51:11.962Z,16.17
2023-05-09T15:54:13.577Z,16.09
2023-05-09T15:57:15.668Z,16.08
2023-05-09T16:00:17.705Z,16.23
2023-05-09T16:03:19.881Z,16.07
2023-05-09T16:06:21.492Z,16.06
2023-05-09T16:09:23.166Z,16.10
2023-05-09T16:12:24.960Z,16.22
2023-05-09T16:15:26.514Z,16.32
2023-05-09T16:18:28.155Z,16.20
2023-05-09T16:21:29.863Z,15.45
2023-05-09T16:24:31.839Z,14.88
2023-05-09T16:27:33.659Z,14.57
2023-05-09T16:30:36.308Z,14.38
2023-05-09T16:33:37.863Z,14.19
2023-05-09T16:36:39.601Z,14.07
2023-05-09T16:39:41.167Z,14.00
2023-05-09T16:42:42.980Z,13.90
2023-05-09T16:45:44.665Z,13.79
2023-05-09T16:48:46.262Z,13.68
2023-05-09T16:51:47.821Z,13.68
2023-05-09T16:54:49.635Z,13.61
2023-05-09T16:57:51.318Z,13.53
2023-05-09T17:00:52.926Z,13.55
2023-05-09T17:03:55.205Z,13.37
2023-05-09T17:06:56.818Z,13.14
2023-05-09T17:09:58.472Z,12.94
2023-05-09T17:13:00.139Z,12.78
2023-05-09T17:16:01.888Z,12.66
2023-05-09T17:19:03.617Z,12.53
2023-05-09T17:22:05.280Z,12.41
2023-05-09T17:25:07.121Z,12.28
2023-05-09T17:28:08.748Z,12.15
2023-05-09T17:31:10.275Z,12.02
2023-05-09T17:34:11.913Z,11.86
2023-05-09T17:37:13.577Z,11.72
2023-05-09T17:40:15.333Z,11.61
2023-05-09T17:43:17.258Z,11.52
2023-05-09T17:46:19.162Z,11.44
2023-05-09T17:49:20.687Z,11.38
2023-05-09T17:52:22.336Z,11.32
2023-05-09T17:55:24.182Z,11.25
2023-05-09T17:58:26.005Z,11.11
2023-05-09T18:01:27.643Z,10.99
2023-05-09T18:04:29.169Z,10.90
2023-05-09T18:07:31.877Z,10.80
2023-05-09T18:10:33.671Z,10.74
2023-05-09T18:13:35.465Z,10.66
2023-05-09T18:16:37.176Z,10.56
2023-05-09T18:19:39.028Z,10.44
2023-05-09T18:22:40.646Z,10.26
2023-05-09T18:25:42.271Z,10.06
2023-05-09T18:28:43.888Z,9.91
2023-05-09T18:31:45.748Z,9.82
2023-05-09T18:34:47.316Z,9.77
2023-05-09T18:37:48.907Z,9.71
2023-05-09T18:40:50.524Z,9.67
2023-05-09T18:43:53.006Z,9.65
2023-05-09T18:46:54.760Z,9.62
2023-05-09T18:49:56.381Z,9.56
2023-05-09T18:52:58.480Z,9.46
2023-05-09T18:56:00.155Z,9.32
2023-05-09T18:59:01.690Z,9.20
2023-05-09T19:02:03.444Z,9.07
2023-05-09T19:05:08.701Z,8.92
2023-05-09T19:08:10.284Z,8.80
2023-05-09T19:11:11.838Z,8.73
2023-05-09T19:14:13.511Z,8.63
2023-05-09T19:17:15.002Z,8.51
2023-05-09T19:20:16.640Z,8.44
2023-05-09T19:23:18.678Z,8.35
2023-05-09T19:26:20.151Z,8.24
2023-05-09T19:29:21.753Z,8.11
2023-05-09T19:32:23.314Z,8.01
2023-05-09T19:35:25.414Z,7.94
2023-05-09T19:38:27.296Z,7.88
2023-05-09T19:41:29.638Z,7.81
2023-05-09T19:44:31.848Z,7.76
2023-05-09T19:47:34.143Z,7.70
2023-05-09T19:50:35.796Z,7.62
2023-05-09T19:53:37.798Z,7.53
2023-05-09T19:56:39.385Z,7.44
2023-05-09T19:59:41.017Z,7.36
2023-05-09T20:02:42.511Z,7.27
2023-05-09T20:09:03.587Z,7.17
2023-05-09T20:12:05.132Z,7.16
2023-05-09T20:15:07.662Z,7.12
2023-05-09T20:18:09.331Z,7.07
2023-05-09T20:21:11.179Z,6.98
2023-05-09T20:24:12.897Z,6.82
2023-05-09T20:27:14.427Z,6.74
2023-05-09T20:30:16.179Z,6.71
2023-05-09T20:33:17.949Z,6.71
2023-05-09T20:36:19.353Z,6.75
2023-05-09T20:39:21.688Z,6.73
2023-05-09T20:42:23.318Z,6.70
2023-05-09T20:45:24.754Z,6.67
2023-05-09T20:48:26.524Z,6.63
2023-05-09T20:51:28.002Z,6.60
2023-05-09T20:54:29.426Z,6.57
2023-05-09T20:57:30.987Z,6.51
2023-05-09T21:00:32.611Z,6.44
2023-05-09T21:03:34.323Z,6.39
2023-05-09T21:06:36.523Z,6.33
2023-05-09T21:09:38.109Z,6.31
2023-05-09T21:12:39.591Z,6.29
2023-05-09T21:15:41.431Z,6.28
2023-05-09T21:18:43.054Z,6.25
2023-05-09T21:21:44.471Z,6.23
2023-05-09T21:24:46.051Z,6.21
2023-05-09T21:27:47.606Z,6.18
2023-05-09T21:30:55.309Z,6.15
2023-05-09T21:33:58.716Z,6.14
2023-05-09T21:37:00.344Z,6.14
2023-05-09T21:40:02.526Z,6.16
2023-05-09T21:43:05.842Z,6.15
2023-05-09T21:46:07.577Z,6.12
2023-05-09T21:49:09.156Z,6.07
2023-05-09T21:52:10.649Z,6.04
2023-05-09T21:55:12.266Z,5.99
2023-05-09T21:58:13.800Z,5.98
2023-05-09T22:01:15.920Z,6.01
2023-05-09T22:04:17.567Z,6.09
2023-05-09T22:07:19.017Z,6.12
2023-05-09T22:10:20.534Z,6.09
2023-05-09T22:13:23.270Z,6.04
2023-05-09T22:16:25.047Z,6.03
2023-05-09T22:19:26.666Z,5.97
2023-05-09T22:22:28.069Z,5.91
2023-05-09T22:25:29.565Z,5.86
2023-05-09T22:28:31.072Z,5.81
2023-05-09T22:31:32.981Z,5.77
2023-05-09T22:34:34.979Z,5.71
2023-05-09T22:37:36.722Z,5.62
2023-05-09T22:40:38.579Z,5.52
2023-05-09T22:43:40.111Z,5.42
2023-05-09T22:46:41.637Z,5.32
2023-05-09T22:49:44.574Z,5.22
2023-05-09T22:52:47.425Z,5.12
2023-05-09T22:55:48.926Z,5.07
2023-05-09T22:58:50.528Z,5.03
2023-05-09T23:01:51.971Z,5.00
2023-05-09T23:04:53.635Z,4.96
2023-05-09T23:07:55.199Z,4.91
2023-05-09T23:10:56.900Z,4.88
2023-05-09T23:13:58.558Z,4.86
2023-05-09T23:17:00.056Z,4.84
2023-05-09T23:20:01.801Z,4.79
2023-05-09T23:23:03.301Z,4.76
2023-05-09T23:26:04.958Z,4.75
2023-05-09T23:29:06.483Z,4.74
2023-05-09T23:32:08.011Z,4.71
2023-05-09T23:35:10.251Z,4.70
2023-05-09T23:38:11.906Z,4.63
2023-05-09T23:41:13.486Z,4.35
2023-05-09T23:44:15.048Z,4.13
2023-05-09T23:47:17.079Z,4.06
2023-05-09T23:50:18.821Z,4.01
2023-05-09T23:53:20.923Z,3.95
2023-05-09T23:56:22.522Z,3.92
2023-05-09T23:59:24.093Z,3.88
